Time;durP1;ratioP1;P1;durP2;ratioP2;P2;SDS_P1;SDS_P2;PMS_P1;PMS_P2;Temp;Humidity;BMP_temperature;BMP_pressure;BME280_temperature;BME280_humidity;BME280_pressure;Samples;Min_cycle;Max_cycle;Signal;HPM_P1;HPM_P2
2021/12/28 00:00:15;;;;;;;28.03;15.17;;;;;;;;;;5036859;28;20670;-75
2021/12/28 00:02:41;;;;;;;26.57;14.53;;;;;;;;;;5036396;28;20169;-73
2021/12/28 00:05:09;;;;;;;25.97;15.53;;;;;;;;;;5038401;28;20252;-73
2021/12/28 00:07:34;;;;;;;24.33;14.87;;;;;;;;;;5033433;28;20177;-75
2021/12/28 00:09:59;;;;;;;27.30;14.77;;;;;;;;;;5031876;28;20201;-73
2021/12/28 00:12:24;;;;;;;26.43;14.80;;;;;;;;;;5034395;28;20198;-73
2021/12/28 00:14:51;;;;;;;30.00;14.77;;;;;;;;;;5037090;28;20194;-75
2021/12/28 00:20:00;;;;;;;20.63;12.30;;;;;;;;;;5042105;28;20579;-73
2021/12/28 00:22:25;;;;;;;23.10;14.00;;;;;;;;;;5045686;28;20177;-73
2021/12/28 00:24:51;;;;;;;22.10;12.73;;;;;;;;;;5050554;28;20203;-74
2021/12/28 00:27:16;;;;;;;26.63;14.83;;;;;;;;;;5046378;28;20253;-74
2021/12/28 00:29:42;;;;;;;32.90;13.03;;;;;;;;;;5052595;28;20178;-75
2021/12/28 00:32:08;;;;;;;24.03;13.33;;;;;;;;;;5051664;28;20193;-74
2021/12/28 00:34:34;;;;;;;29.53;12.83;;;;;;;;;;5055957;28;20189;-74
2021/12/28 00:36:59;;;;;;;29.87;12.33;;;;;;;;;;5050751;28;20276;-74
2021/12/28 00:39:25;;;;;;;32.80;13.70;;;;;;;;;;5053815;28;20292;-72
2021/12/28 00:41:50;;;;;;;19.93;12.13;;;;;;;;;;5041546;28;20193;-74
2021/12/28 00:44:15;;;;;;;31.13;13.50;;;;;;;;;;5026412;28;20296;-73
2021/12/28 00:46:40;;;;;;;29.70;13.17;;;;;;;;;;5029081;28;20180;-73
2021/12/28 00:49:05;;;;;;;31.07;11.93;;;;;;;;;;5027490;28;20650;-74
2021/12/28 00:51:31;;;;;;;29.03;12.73;;;;;;;;;;5035695;28;20236;-74
2021/12/28 00:53:56;;;;;;;24.03;11.70;;;;;;;;;;5033285;28;20174;-75
2021/12/28 00:56:21;;;;;;;28.80;12.23;;;;;;;;;;5036119;28;20202;-75
2021/12/28 00:58:46;;;;;;;21.03;11.47;;;;;;;;;;5037191;28;20212;-75
2021/12/28 01:01:11;;;;;;;32.90;12.37;;;;;;;;;;5037168;28;20742;-75
2021/12/28 01:03:38;;;;;;;23.73;11.87;;;;;;;;;;5040222;28;20182;-74
2021/12/28 01:06:04;;;;;;;31.23;12.30;;;;;;;;;;5039681;28;20185;-75
2021/12/28 01:08:30;;;;;;;28.53;11.87;;;;;;;;;;5030478;28;20185;-73
2021/12/28 01:10:56;;;;;;;32.40;11.63;;;;;;;;;;5036056;28;20240;-74
2021/12/28 01:13:21;;;;;;;29.93;12.07;;;;;;;;;;5039353;28;20212;-74
2021/12/28 01:15:47;;;;;;;26.77;12.27;;;;;;;;;;5038459;28;20194;-74
2021/12/28 01:18:12;;;;;;;31.80;11.73;;;;;;;;;;5038904;28;20232;-74
2021/12/28 01:20:38;;;;;;;27.67;13.13;;;;;;;;;;5030863;28;20362;-74
2021/12/28 01:23:03;;;;;;;33.87;11.60;;;;;;;;;;5046381;28;20177;-74
2021/12/28 01:25:29;;;;;;;32.97;12.10;;;;;;;;;;5037667;28;20294;-74
2021/12/28 01:27:54;;;;;;;26.40;11.23;;;;;;;;;;5037489;28;20265;-72
2021/12/28 01:30:20;;;;;;;25.40;11.43;;;;;;;;;;5037580;28;20193;-74
2021/12/28 01:32:46;;;;;;;32.60;9.83;;;;;;;;;;5037408;28;20185;-74
2021/12/28 01:35:12;;;;;;;29.43;10.03;;;;;;;;;;5037074;28;20213;-75
2021/12/28 01:37:37;;;;;;;27.80;11.23;;;;;;;;;;5037536;28;20397;-74
2021/12/28 01:40:04;;;;;;;26.00;11.20;;;;;;;;;;5037973;28;20215;-75
2021/12/28 01:42:30;;;;;;;29.43;9.47;;;;;;;;;;5035234;28;20177;-74
2021/12/28 01:44:56;;;;;;;29.97;10.03;;;;;;;;;;5035702;28;20181;-74
2021/12/28 01:47:21;;;;;;;28.80;10.00;;;;;;;;;;5036250;28;20185;-72
2021/12/28 01:49:46;;;;;;;28.13;10.30;;;;;;;;;;5037271;28;20184;-74
2021/12/28 01:52:12;;;;;;;28.17;10.40;;;;;;;;;;5037877;28;20190;-74
2021/12/28 01:54:37;;;;;;;26.27;10.27;;;;;;;;;;5033661;28;20410;-74
2021/12/28 01:57:03;;;;;;;24.50;10.60;;;;;;;;;;5034374;28;20201;-74
2021/12/28 01:59:28;;;;;;;30.63;9.67;;;;;;;;;;5035676;28;20205;-75
2021/12/28 02:01:53;;;;;;;24.90;8.87;;;;;;;;;;5034440;28;20208;-74
2021/12/28 02:04:23;;;;;;;33.20;9.77;;;;;;;;;;5039756;28;20230;-74
2021/12/28 02:06:49;;;;;;;28.37;8.30;;;;;;;;;;5035655;28;20188;-73
2021/12/28 02:09:14;;;;;;;27.20;7.87;;;;;;;;;;5050143;28;20186;-74
2021/12/28 02:11:40;;;;;;;42.53;10.80;;;;;;;;;;5049899;28;20266;-74
2021/12/28 02:14:07;;;;;;;32.80;9.13;;;;;;;;;;5049811;28;20666;-74
2021/12/28 02:16:33;;;;;;;37.00;8.20;;;;;;;;;;5037995;28;20177;-72
2021/12/28 02:18:58;;;;;;;32.00;9.43;;;;;;;;;;5037064;28;20674;-74
2021/12/28 02:21:24;;;;;;;24.83;8.13;;;;;;;;;;5034426;28;20199;-73
2021/12/28 02:23:49;;;;;;;34.17;8.50;;;;;;;;;;5036777;28;20509;-75
2021/12/28 02:26:15;;;;;;;33.47;7.77;;;;;;;;;;5039267;28;20173;-72
2021/12/28 02:28:40;;;;;;;23.73;7.47;;;;;;;;;;5036409;28;20276;-75
2021/12/28 02:31:05;;;;;;;32.80;7.50;;;;;;;;;;5043721;28;20190;-75
2021/12/28 02:33:30;;;;;;;38.03;7.10;;;;;;;;;;5036467;28;20220;-75
2021/12/28 02:35:57;;;;;;;40.73;8.03;;;;;;;;;;5031549;28;20189;-75
2021/12/28 02:38:22;;;;;;;38.23;7.60;;;;;;;;;;5033120;28;20209;-73
2021/12/28 02:40:48;;;;;;;28.47;8.10;;;;;;;;;;5032851;28;20201;-75
2021/12/28 02:43:14;;;;;;;33.20;7.67;;;;;;;;;;5033250;28;20698;-74
2021/12/28 02:46:01;;;;;;;32.37;7.40;;;;;;;;;;5032905;28;20230;-75
2021/12/28 02:48:27;;;;;;;31.20;7.43;;;;;;;;;;5032478;28;20718;-75
2021/12/28 02:50:59;;;;;;;26.23;6.47;;;;;;;;;;5035298;28;20273;-74
2021/12/28 02:53:24;;;;;;;32.33;7.93;;;;;;;;;;5034486;28;20271;-75
2021/12/28 02:55:50;;;;;;;36.97;8.47;;;;;;;;;;5035164;28;20183;-75
2021/12/28 02:58:23;;;;;;;34.70;7.60;;;;;;;;;;5035526;28;20206;-75
2021/12/28 03:01:09;;;;;;;27.67;6.73;;;;;;;;;;5034361;28;20220;-74
2021/12/28 03:03:35;;;;;;;26.20;7.10;;;;;;;;;;5037542;28;20184;-74
2021/12/28 03:06:01;;;;;;;31.80;8.13;;;;;;;;;;5034790;28;20181;-75
2021/12/28 03:08:27;;;;;;;23.23;6.23;;;;;;;;;;5032979;28;20189;-74
2021/12/28 03:10:53;;;;;;;31.13;7.30;;;;;;;;;;5035663;28;20201;-74
2021/12/28 03:13:20;;;;;;;24.30;6.47;;;;;;;;;;5033278;28;20208;-74
2021/12/28 03:15:45;;;;;;;27.43;8.00;;;;;;;;;;5027389;28;20190;-74
2021/12/28 03:18:10;;;;;;;23.53;6.70;;;;;;;;;;5032755;28;20190;-73
2021/12/28 03:20:36;;;;;;;26.07;7.03;;;;;;;;;;5034866;28;20746;-74
2021/12/28 03:23:02;;;;;;;25.47;6.77;;;;;;;;;;5035010;28;20231;-73
2021/12/28 03:25:27;;;;;;;23.60;7.43;;;;;;;;;;5033091;28;20177;-74
2021/12/28 03:27:52;;;;;;;31.30;7.67;;;;;;;;;;5033732;28;20226;-75
2021/12/28 03:30:17;;;;;;;22.97;6.67;;;;;;;;;;5034047;28;20202;-73
2021/12/28 03:32:43;;;;;;;21.53;6.40;;;;;;;;;;5033576;28;20177;-73
2021/12/28 03:35:09;;;;;;;17.10;6.67;;;;;;;;;;5032136;28;20191;-74
2021/12/28 03:37:35;;;;;;;28.93;6.43;;;;;;;;;;5032297;28;20573;-74
2021/12/28 03:40:01;;;;;;;24.27;6.97;;;;;;;;;;5034847;28;20212;-74
2021/12/28 03:42:26;;;;;;;26.83;8.23;;;;;;;;;;5034246;28;20220;-73
2021/12/28 03:44:51;;;;;;;22.07;7.33;;;;;;;;;;5032038;28;20181;-74
2021/12/28 03:47:17;;;;;;;29.43;7.57;;;;;;;;;;5033032;28;20672;-74
2021/12/28 03:49:42;;;;;;;26.43;7.60;;;;;;;;;;5032606;28;20572;-74
2021/12/28 03:52:07;;;;;;;30.30;7.83;;;;;;;;;;5032886;28;20219;-74
2021/12/28 03:54:33;;;;;;;30.23;8.83;;;;;;;;;;5033659;28;20246;-74
2021/12/28 03:56:58;;;;;;;24.93;6.70;;;;;;;;;;5032860;28;20186;-72
2021/12/28 03:59:23;;;;;;;24.80;6.90;;;;;;;;;;5035360;28;20255;-72
2021/12/28 04:01:49;;;;;;;27.37;6.97;;;;;;;;;;5030254;28;20220;-74
2021/12/28 04:04:14;;;;;;;27.40;6.53;;;;;;;;;;5034540;28;20668;-74
2021/12/28 04:06:39;;;;;;;27.60;7.00;;;;;;;;;;5037610;28;20196;-74
2021/12/28 04:09:06;;;;;;;29.00;7.47;;;;;;;;;;5039858;28;20173;-74
2021/12/28 04:11:32;;;;;;;24.13;7.37;;;;;;;;;;5038200;28;20221;-74
2021/12/28 04:13:59;;;;;;;22.47;6.87;;;;;;;;;;5037322;28;20268;-74
2021/12/28 04:16:25;;;;;;;21.63;6.10;;;;;;;;;;5035845;28;20177;-74
2021/12/28 04:18:50;;;;;;;29.07;6.87;;;;;;;;;;5036152;28;20206;-74
2021/12/28 04:21:16;;;;;;;29.50;8.10;;;;;;;;;;5037774;28;20194;-73
2021/12/28 04:23:41;;;;;;;30.33;6.07;;;;;;;;;;5036917;28;20239;-74
2021/12/28 04:26:06;;;;;;;37.10;6.73;;;;;;;;;;5037540;28;20525;-74
2021/12/28 04:28:31;;;;;;;26.60;6.97;;;;;;;;;;5036798;28;20186;-74
2021/12/28 04:30:57;;;;;;;20.37;5.40;;;;;;;;;;5037731;28;20205;-74
2021/12/28 04:33:22;;;;;;;23.40;6.87;;;;;;;;;;5034920;28;20181;-75
2021/12/28 04:35:47;;;;;;;30.40;6.03;;;;;;;;;;5036039;28;20655;-74
2021/12/28 04:38:13;;;;;;;24.93;4.93;;;;;;;;;;5037108;28;20263;-75
2021/12/28 04:40:39;;;;;;;17.57;6.87;;;;;;;;;;5036905;28;20826;-73
2021/12/28 04:43:05;;;;;;;25.03;6.20;;;;;;;;;;5048009;28;20182;-73
2021/12/28 04:45:30;;;;;;;23.33;6.80;;;;;;;;;;5038796;28;20172;-75
2021/12/28 04:47:55;;;;;;;21.93;6.13;;;;;;;;;;5039959;28;20313;-72
2021/12/28 04:50:20;;;;;;;22.10;5.93;;;;;;;;;;5037101;28;20199;-74
2021/12/28 04:52:46;;;;;;;27.40;6.57;;;;;;;;;;5037410;28;20913;-75
2021/12/28 04:55:13;;;;;;;30.20;6.90;;;;;;;;;;5035930;28;20762;-74
2021/12/28 04:57:39;;;;;;;22.80;5.93;;;;;;;;;;5037439;28;20182;-74
2021/12/28 05:00:05;;;;;;;22.00;5.23;;;;;;;;;;5036846;28;20626;-74
2021/12/28 05:02:31;;;;;;;23.43;5.70;;;;;;;;;;5036768;28;20201;-74
2021/12/28 05:04:56;;;;;;;20.23;5.53;;;;;;;;;;5040408;28;20265;-74
2021/12/28 05:07:21;;;;;;;27.50;5.93;;;;;;;;;;5035885;28;20283;-74
2021/12/28 05:09:46;;;;;;;19.37;5.33;;;;;;;;;;5037231;28;20217;-75
2021/12/28 05:12:11;;;;;;;31.33;6.33;;;;;;;;;;5037072;28;20622;-74
2021/12/28 05:14:40;;;;;;;19.17;5.10;;;;;;;;;;5038220;28;20235;-74
2021/12/28 05:17:05;;;;;;;25.50;6.00;;;;;;;;;;5037129;28;20193;-73
2021/12/28 05:19:30;;;;;;;28.23;6.93;;;;;;;;;;5040214;28;20721;-73
2021/12/28 05:21:56;;;;;;;25.43;6.33;;;;;;;;;;5039613;28;20209;-74
2021/12/28 05:24:21;;;;;;;25.27;5.67;;;;;;;;;;5037719;28;20234;-73
2021/12/28 05:26:46;;;;;;;19.07;6.03;;;;;;;;;;5038248;28;20182;-73
2021/12/28 05:29:11;;;;;;;20.07;5.30;;;;;;;;;;5036538;28;21638;-73
2021/12/28 05:31:36;;;;;;;23.73;5.47;;;;;;;;;;5036659;28;20197;-73
2021/12/28 05:34:02;;;;;;;20.10;5.00;;;;;;;;;;5036085;28;20551;-75
2021/12/28 05:36:27;;;;;;;27.50;6.00;;;;;;;;;;5036080;28;20186;-74
2021/12/28 05:38:52;;;;;;;23.87;7.00;;;;;;;;;;5036231;28;20208;-74
2021/12/28 05:41:18;;;;;;;20.33;5.27;;;;;;;;;;5035605;28;20257;-74
2021/12/28 05:43:43;;;;;;;22.27;6.40;;;;;;;;;;5035168;28;20442;-74
2021/12/28 05:46:08;;;;;;;15.00;4.33;;;;;;;;;;5035647;28;20180;-74
2021/12/28 05:48:34;;;;;;;19.77;4.77;;;;;;;;;;5042433;28;20200;-74
2021/12/28 05:50:59;;;;;;;13.27;4.13;;;;;;;;;;5036276;28;20201;-74
2021/12/28 05:53:25;;;;;;;18.87;6.17;;;;;;;;;;5035659;28;20716;-74
2021/12/28 05:55:50;;;;;;;19.93;4.70;;;;;;;;;;5035385;28;20186;-74
2021/12/28 05:58:15;;;;;;;14.00;3.87;;;;;;;;;;5037815;28;20200;-74
2021/12/28 06:00:40;;;;;;;18.50;4.23;;;;;;;;;;5034069;28;20642;-74
2021/12/28 06:03:06;;;;;;;25.60;4.83;;;;;;;;;;5038367;28;20700;-74
2021/12/28 06:05:32;;;;;;;16.07;4.70;;;;;;;;;;5033054;28;20181;-74
2021/12/28 06:07:57;;;;;;;15.03;5.07;;;;;;;;;;5033061;28;20258;-74
2021/12/28 06:10:22;;;;;;;18.90;4.50;;;;;;;;;;5035683;28;20587;-75
2021/12/28 06:12:49;;;;;;;18.13;4.53;;;;;;;;;;5035678;28;20242;-74
2021/12/28 06:15:14;;;;;;;20.67;6.00;;;;;;;;;;5035049;28;20267;-74
2021/12/28 06:17:40;;;;;;;18.37;4.27;;;;;;;;;;5037265;28;20961;-74
2021/12/28 06:20:05;;;;;;;19.43;4.83;;;;;;;;;;5038300;28;20221;-75
2021/12/28 06:22:31;;;;;;;23.53;4.83;;;;;;;;;;5033588;28;20185;-74
2021/12/28 06:24:56;;;;;;;22.23;4.57;;;;;;;;;;5034808;28;20201;-73
2021/12/28 06:27:21;;;;;;;19.07;4.87;;;;;;;;;;5033198;28;20180;-74
2021/12/28 06:29:46;;;;;;;15.10;4.50;;;;;;;;;;5035423;28;20182;-74
2021/12/28 06:32:12;;;;;;;13.33;3.93;;;;;;;;;;5036476;28;20182;-75
2021/12/28 06:34:37;;;;;;;21.93;5.20;;;;;;;;;;5034627;28;20604;-72
2021/12/28 06:37:03;;;;;;;17.37;5.93;;;;;;;;;;5033233;28;20447;-75
2021/12/28 06:39:29;;;;;;;15.40;4.53;;;;;;;;;;5032163;28;20232;-73
2021/12/28 06:41:54;;;;;;;13.53;5.50;;;;;;;;;;5033786;28;20189;-73
2021/12/28 06:44:19;;;;;;;12.07;4.30;;;;;;;;;;5035389;28;20251;-73
2021/12/28 06:46:45;;;;;;;14.83;4.90;;;;;;;;;;5033627;28;20256;-74
2021/12/28 06:49:10;;;;;;;17.17;5.87;;;;;;;;;;5035349;28;20213;-74
2021/12/28 06:51:35;;;;;;;13.37;5.17;;;;;;;;;;5035794;28;20205;-74
2021/12/28 06:54:00;;;;;;;10.77;4.67;;;;;;;;;;5032973;28;20647;-75
2021/12/28 06:56:26;;;;;;;12.63;5.00;;;;;;;;;;5034748;28;20191;-75
2021/12/28 06:58:51;;;;;;;12.37;4.70;;;;;;;;;;5033160;28;20243;-73
2021/12/28 07:01:17;;;;;;;11.70;4.87;;;;;;;;;;5033341;28;20213;-75
2021/12/28 07:03:42;;;;;;;12.03;5.70;;;;;;;;;;5035568;28;20177;-75
2021/12/28 07:06:07;;;;;;;15.50;5.33;;;;;;;;;;5050183;22;20273;-72
2021/12/28 07:08:36;;;;;;;16.63;5.47;;;;;;;;;;5045679;28;20188;-72
2021/12/28 07:11:02;;;;;;;18.57;5.17;;;;;;;;;;5046617;28;20181;-74
2021/12/28 07:13:27;;;;;;;39.13;6.60;;;;;;;;;;5048072;28;20188;-73
2021/12/28 07:15:52;;;;;;;12.03;5.00;;;;;;;;;;5047177;28;20772;-72
2021/12/28 07:18:18;;;;;;;14.33;6.20;;;;;;;;;;5048395;28;20419;-71
2021/12/28 07:20:43;;;;;;;13.73;5.93;;;;;;;;;;5046739;28;20524;-72
2021/12/28 07:23:08;;;;;;;16.23;5.23;;;;;;;;;;5049812;28;20188;-75
2021/12/28 07:25:34;;;;;;;14.17;6.57;;;;;;;;;;5048995;28;20192;-72
2021/12/28 07:27:59;;;;;;;18.50;5.67;;;;;;;;;;5048270;28;20180;-74
2021/12/28 07:30:24;;;;;;;18.40;6.73;;;;;;;;;;5046135;28;20177;-74
2021/12/28 07:32:49;;;;;;;15.70;6.43;;;;;;;;;;5045956;28;20184;-73
2021/12/28 07:35:14;;;;;;;10.33;5.50;;;;;;;;;;5047497;28;20192;-74
2021/12/28 07:37:40;;;;;;;11.90;5.20;;;;;;;;;;5048736;28;20257;-74
2021/12/28 07:40:06;;;;;;;10.00;4.23;;;;;;;;;;5048158;28;20472;-71
2021/12/28 07:42:31;;;;;;;14.03;5.23;;;;;;;;;;5049274;28;20223;-74
2021/12/28 07:44:56;;;;;;;10.83;3.97;;;;;;;;;;5045748;28;20380;-73
2021/12/28 07:47:22;;;;;;;8.93;4.13;;;;;;;;;;5051291;28;20724;-73
2021/12/28 07:49:47;;;;;;;12.27;5.43;;;;;;;;;;5047905;28;20196;-72
2021/12/28 07:52:12;;;;;;;11.03;4.33;;;;;;;;;;5047755;28;20181;-72
2021/12/28 07:54:37;;;;;;;12.53;4.80;;;;;;;;;;5045951;28;20706;-74
2021/12/28 07:57:03;;;;;;;10.23;5.03;;;;;;;;;;5047149;28;20201;-72
2021/12/28 07:59:28;;;;;;;10.07;4.53;;;;;;;;;;5046522;28;20354;-71
2021/12/28 08:01:53;;;;;;;12.50;4.33;;;;;;;;;;5047000;28;20184;-74
2021/12/28 08:04:19;;;;;;;7.40;4.27;;;;;;;;;;5066703;28;20176;-72
2021/12/28 08:06:44;;;;;;;13.07;4.97;;;;;;;;;;5047834;28;20379;-73
2021/12/28 08:09:10;;;;;;;13.47;5.20;;;;;;;;;;5046174;28;20182;-74
2021/12/28 08:11:35;;;;;;;13.10;4.30;;;;;;;;;;5046804;28;20185;-74
2021/12/28 08:14:00;;;;;;;7.93;4.73;;;;;;;;;;5050695;28;20183;-72
2021/12/28 08:16:26;;;;;;;9.50;4.90;;;;;;;;;;5062265;28;20208;-73
2021/12/28 08:18:51;;;;;;;8.47;5.70;;;;;;;;;;5050746;28;20193;-71
2021/12/28 08:21:16;;;;;;;11.70;5.47;;;;;;;;;;5046731;28;20180;-72
2021/12/28 08:23:41;;;;;;;12.20;6.20;;;;;;;;;;5045786;28;20176;-73
2021/12/28 08:26:06;;;;;;;8.97;5.53;;;;;;;;;;5047900;28;20845;-72
2021/12/28 08:28:32;;;;;;;7.47;5.40;;;;;;;;;;5049013;28;20199;-71
2021/12/28 08:30:57;;;;;;;7.23;5.50;;;;;;;;;;5049231;28;20635;-71
2021/12/28 08:33:23;;;;;;;9.37;5.17;;;;;;;;;;5047064;28;20181;-72
2021/12/28 08:35:49;;;;;;;11.53;5.70;;;;;;;;;;5047205;28;20312;-73
2021/12/28 08:38:14;;;;;;;12.03;6.90;;;;;;;;;;5054197;28;20185;-73
2021/12/28 08:40:40;;;;;;;9.53;5.50;;;;;;;;;;5048160;28;20193;-73
2021/12/28 08:43:05;;;;;;;8.37;5.47;;;;;;;;;;5046557;28;20173;-72
2021/12/28 08:45:31;;;;;;;11.77;6.90;;;;;;;;;;5049957;28;20261;-72
2021/12/28 08:47:56;;;;;;;5.83;4.97;;;;;;;;;;5065724;28;20177;-74
2021/12/28 08:50:21;;;;;;;8.27;5.67;;;;;;;;;;5051705;28;20234;-71
2021/12/28 08:52:47;;;;;;;9.67;6.23;;;;;;;;;;5050728;28;20723;-72
2021/12/28 08:55:12;;;;;;;10.37;6.37;;;;;;;;;;5054574;28;20212;-73
2021/12/28 08:57:38;;;;;;;14.40;6.80;;;;;;;;;;5049879;28;20212;-72
2021/12/28 09:00:05;;;;;;;10.43;7.30;;;;;;;;;;5050077;28;20286;-72
2021/12/28 09:02:30;;;;;;;12.13;6.83;;;;;;;;;;5051314;28;20517;-74
2021/12/28 09:04:55;;;;;;;9.50;6.60;;;;;;;;;;5054596;28;20787;-75
2021/12/28 09:07:21;;;;;;;10.73;7.03;;;;;;;;;;5050388;28;20540;-73
2021/12/28 09:09:46;;;;;;;9.70;6.87;;;;;;;;;;5054460;28;20399;-78
2021/12/28 09:12:12;;;;;;;10.67;7.67;;;;;;;;;;5050278;28;20641;-76
2021/12/28 09:14:37;;;;;;;14.10;7.30;;;;;;;;;;5049015;28;22331;-75
2021/12/28 09:17:03;;;;;;;12.33;7.30;;;;;;;;;;5050164;28;20200;-74
2021/12/28 09:19:28;;;;;;;10.67;7.20;;;;;;;;;;5051344;28;20208;-73
2021/12/28 09:21:53;;;;;;;12.80;7.97;;;;;;;;;;5050040;28;20172;-75
2021/12/28 09:24:18;;;;;;;14.13;7.53;;;;;;;;;;5050840;28;21353;-77
2021/12/28 09:26:43;;;;;;;13.73;7.43;;;;;;;;;;5051146;28;20744;-77
2021/12/28 09:29:09;;;;;;;11.33;7.43;;;;;;;;;;5050913;28;20751;-76
2021/12/28 09:31:34;;;;;;;14.30;7.73;;;;;;;;;;5053154;28;20188;-77
2021/12/28 09:34:00;;;;;;;9.80;7.40;;;;;;;;;;5050858;28;20184;-75
2021/12/28 09:36:25;;;;;;;10.43;7.83;;;;;;;;;;5049801;28;20215;-76
2021/12/28 09:38:50;;;;;;;12.17;7.67;;;;;;;;;;5050134;28;20205;-74
2021/12/28 09:41:15;;;;;;;17.60;9.57;;;;;;;;;;5049383;28;20264;-74
2021/12/28 09:43:41;;;;;;;11.03;7.77;;;;;;;;;;5049010;28;20276;-74
2021/12/28 09:46:07;;;;;;;9.33;7.67;;;;;;;;;;5046740;28;20554;-74
2021/12/28 09:48:32;;;;;;;12.87;7.47;;;;;;;;;;5052055;28;20188;-74
2021/12/28 09:50:58;;;;;;;11.70;7.83;;;;;;;;;;5054732;28;20190;-76
2021/12/28 09:53:23;;;;;;;11.17;7.93;;;;;;;;;;5049075;28;20546;-75
2021/12/28 09:55:48;;;;;;;10.63;7.40;;;;;;;;;;5048885;28;20608;-79
2021/12/28 09:58:13;;;;;;;14.50;8.80;;;;;;;;;;5049463;28;20714;-75
2021/12/28 10:00:39;;;;;;;10.53;7.77;;;;;;;;;;5050534;28;20180;-75
2021/12/28 10:03:04;;;;;;;12.23;9.10;;;;;;;;;;5050890;28;20192;-74
2021/12/28 10:05:30;;;;;;;10.90;8.23;;;;;;;;;;5050213;28;20205;-73
2021/12/28 10:07:59;;;;;;;10.20;8.50;;;;;;;;;;5053646;28;20188;-74
2021/12/28 10:10:25;;;;;;;12.23;9.20;;;;;;;;;;5045029;28;20549;-72
2021/12/28 10:12:52;;;;;;;10.93;8.00;;;;;;;;;;5051939;28;20215;-70
2021/12/28 10:15:25;;;;;;;9.43;7.40;;;;;;;;;;5048142;28;20180;-72
2021/12/28 10:17:52;;;;;;;11.50;8.10;;;;;;;;;;5054812;28;20204;-72
2021/12/28 10:20:24;;;;;;;10.53;7.73;;;;;;;;;;5051292;28;20745;-73
2021/12/28 10:22:54;;;;;;;9.80;7.10;;;;;;;;;;5052004;28;20196;-70
2021/12/28 10:25:21;;;;;;;9.07;7.57;;;;;;;;;;5069436;28;20196;-72
2021/12/28 10:28:07;;;;;;;11.90;7.10;;;;;;;;;;5063166;28;20700;-72
2021/12/28 10:30:34;;;;;;;10.57;7.30;;;;;;;;;;5048240;28;20191;-73
2021/12/28 10:33:03;;;;;;;8.83;6.57;;;;;;;;;;5048576;28;20873;-73
2021/12/28 23:44:53;;;;;;;15.07;5.53;;;;;;;;;;5056635;28;20220;-70
2021/12/28 23:47:18;;;;;;;14.90;5.17;;;;;;;;;;5072328;28;20630;-70
2021/12/28 23:49:43;;;;;;;18.13;5.10;;;;;;;;;;5066048;28;20183;-71
2021/12/28 23:52:09;;;;;;;24.53;5.90;;;;;;;;;;5066969;28;20213;-69
2021/12/28 23:54:35;;;;;;;16.50;4.87;;;;;;;;;;5067380;28;20176;-68
2021/12/28 23:57:00;;;;;;;12.07;4.83;;;;;;;;;;5067946;28;20183;-70
2021/12/28 23:59:25;;;;;;;22.90;6.47;;;;;;;;;;5061663;22;20888;-68
